Time;durP1;ratioP1;P1;durP2;ratioP2;P2;SDS_P1;SDS_P2;PMS_P1;PMS_P2;Temp;Humidity;BMP_temperature;BMP_pressure;BME280_temperature;BME280_humidity;BME280_pressure;Samples;Min_cycle;Max_cycle;Signal;HPM_P1;HPM_P2
2022/08/18 00:01:18;;;;;;;6.50;4.07;;;;;;;;;;5101097;28;20078;-81
2022/08/18 00:03:45;;;;;;;11.70;4.55;;;;;;;;;;5091498;28;20052;-81
2022/08/18 00:06:25;;;;;;;15.25;5.03;;;;;;;;;;5092308;28;20112;-81
2022/08/18 00:08:54;;;;;;;9.05;4.43;;;;;;;;;;5089677;28;20060;-81
2022/08/18 00:11:20;;;;;;;8.45;4.25;;;;;;;;;;5095190;28;20048;-81
2022/08/18 00:13:47;;;;;;;11.15;4.70;;;;;;;;;;5103931;28;20044;-81
2022/08/18 00:16:13;;;;;;;7.28;4.10;;;;;;;;;;5104485;28;20044;-81
2022/08/18 00:18:39;;;;;;;10.40;4.43;;;;;;;;;;5104473;28;20044;-80
2022/08/18 00:21:06;;;;;;;11.07;4.78;;;;;;;;;;5086189;28;20536;-81
2022/08/18 00:23:32;;;;;;;10.32;4.80;;;;;;;;;;5104992;28;20044;-80
2022/08/18 00:25:59;;;;;;;10.15;5.00;;;;;;;;;;5105890;28;20051;-80
2022/08/18 00:28:25;;;;;;;8.05;4.90;;;;;;;;;;5106049;28;20044;-80
2022/08/18 00:30:52;;;;;;;7.57;4.90;;;;;;;;;;5105658;28;20051;-80
2022/08/18 00:33:20;;;;;;;9.27;4.63;;;;;;;;;;5105370;28;20066;-79
2022/08/18 00:35:46;;;;;;;9.63;4.75;;;;;;;;;;5106268;28;20108;-80
2022/08/18 00:38:13;;;;;;;9.25;5.32;;;;;;;;;;5105243;28;20040;-80
2022/08/18 00:40:52;;;;;;;9.55;5.07;;;;;;;;;;5105335;28;20047;-79
2022/08/18 00:43:20;;;;;;;8.23;4.80;;;;;;;;;;5105820;28;20090;-79
2022/08/18 00:45:46;;;;;;;6.55;4.95;;;;;;;;;;5106865;28;20044;-80
2022/08/18 00:48:13;;;;;;;6.60;5.15;;;;;;;;;;5106450;28;20067;-79
2022/08/18 00:50:41;;;;;;;10.45;5.10;;;;;;;;;;5105877;28;20127;-79
2022/08/18 00:53:17;;;;;;;7.38;5.20;;;;;;;;;;5106899;28;20048;-80
2022/08/18 00:55:47;;;;;;;9.02;4.88;;;;;;;;;;5094791;28;20075;-80
2022/08/18 00:58:23;;;;;;;8.02;5.05;;;;;;;;;;5106181;28;20051;-81
2022/08/18 01:00:50;;;;;;;11.80;4.72;;;;;;;;;;5107604;28;20044;-81
2022/08/18 01:03:17;;;;;;;9.30;5.20;;;;;;;;;;5107317;28;20059;-81
2022/08/18 01:06:02;;;;;;;7.55;4.85;;;;;;;;;;5107274;28;20052;-80
2022/08/18 01:08:28;;;;;;;7.95;4.75;;;;;;;;;;5088186;28;20070;-81
2022/08/18 01:10:56;;;;;;;11.40;5.20;;;;;;;;;;5099958;28;20048;-80
2022/08/18 01:13:30;;;;;;;15.57;5.68;;;;;;;;;;5069219;28;20068;-78
2022/08/18 01:15:57;;;;;;;6.47;4.78;;;;;;;;;;5086027;28;20070;-81
2022/08/18 01:23:57;;;;;;;11.82;5.65;;;;;;;;;;5086704;28;20094;-81
2022/08/18 01:26:25;;;;;;;8.35;5.63;;;;;;;;;;5086920;28;20060;-81
2022/08/18 01:28:52;;;;;;;7.68;5.80;;;;;;;;;;5087257;28;20241;-82
2022/08/18 01:31:29;;;;;;;9.25;5.78;;;;;;;;;;5087102;28;20063;-82
2022/08/18 01:33:56;;;;;;;7.65;5.70;;;;;;;;;;5070385;28;20048;-82
2022/08/18 01:36:22;;;;;;;11.55;5.43;;;;;;;;;;5088268;28;20048;-82
2022/08/18 01:38:50;;;;;;;9.60;5.55;;;;;;;;;;5087993;28;20052;-81
2022/08/18 01:41:18;;;;;;;14.23;5.45;;;;;;;;;;5088555;28;20055;-81
2022/08/18 01:43:57;;;;;;;8.00;5.40;;;;;;;;;;5087467;28;20131;-82
2022/08/18 01:46:24;;;;;;;9.00;5.85;;;;;;;;;;5087918;28;20049;-81
2022/08/18 01:48:50;;;;;;;7.45;5.60;;;;;;;;;;5090050;28;20040;-81
2022/08/18 01:51:18;;;;;;;9.98;5.78;;;;;;;;;;5090991;28;20032;-81
2022/08/18 01:53:45;;;;;;;10.07;5.60;;;;;;;;;;5095816;28;20412;-80
2022/08/18 01:56:13;;;;;;;9.25;5.63;;;;;;;;;;5101800;28;20052;-82
2022/08/18 01:58:39;;;;;;;10.32;5.80;;;;;;;;;;5093277;28;20052;-79
2022/08/18 02:01:06;;;;;;;7.28;5.63;;;;;;;;;;5093544;28;20037;-81
2022/08/18 02:03:36;;;;;;;10.40;6.43;;;;;;;;;;5093252;28;20048;-80
2022/08/18 02:06:04;;;;;;;10.07;5.70;;;;;;;;;;5093619;28;20032;-80
2022/08/18 02:08:31;;;;;;;7.28;5.88;;;;;;;;;;5093811;28;20032;-80
2022/08/18 02:10:58;;;;;;;18.17;11.40;;;;;;;;;;5093277;28;20045;-79
2022/08/18 02:13:25;;;;;;;9.30;6.25;;;;;;;;;;5092525;28;20043;-80
2022/08/18 02:15:51;;;;;;;8.85;5.65;;;;;;;;;;5086177;28;20070;-80
2022/08/18 02:18:20;;;;;;;9.40;6.22;;;;;;;;;;5091927;28;20052;-80
2022/08/18 02:21:13;;;;;;;6.63;5.55;;;;;;;;;;5076019;28;20087;-79
2022/08/18 02:23:45;;;;;;;8.35;5.97;;;;;;;;;;5090435;28;20055;-80
2022/08/18 02:26:19;;;;;;;8.67;5.40;;;;;;;;;;5091541;28;20040;-80
2022/08/18 02:28:45;;;;;;;11.38;6.40;;;;;;;;;;5087315;28;20074;-80
2022/08/18 02:31:17;;;;;;;12.35;6.18;;;;;;;;;;5085974;28;20051;-80
2022/08/18 02:33:44;;;;;;;9.85;6.13;;;;;;;;;;5084986;28;20048;-80
2022/08/18 02:36:18;;;;;;;12.73;6.60;;;;;;;;;;5084474;28;20045;-80
2022/08/18 02:38:44;;;;;;;8.88;6.25;;;;;;;;;;5065864;28;20049;-79
2022/08/18 02:41:20;;;;;;;;;;;;;;;;;;5081830;28;20113;-79
2022/08/18 02:43:47;;;;;;;7.85;6.30;;;;;;;;;;5080114;28;19920;-79
2022/08/18 02:46:14;;;;;;;9.35;6.40;;;;;;;;;;5060797;28;20128;-79
2022/08/18 02:48:41;;;;;;;9.35;5.85;;;;;;;;;;5078218;28;20072;-79
2022/08/18 02:51:11;;;;;;;12.13;6.15;;;;;;;;;;5089425;28;20682;-79
2022/08/18 02:53:41;;;;;;;13.45;6.30;;;;;;;;;;5092179;28;20063;-79
2022/08/18 02:56:24;;;;;;;9.60;6.30;;;;;;;;;;5099571;28;20040;-80
2022/08/18 02:59:09;;;;;;;10.07;5.80;;;;;;;;;;5106996;28;20112;-81
2022/08/18 03:01:37;;;;;;;6.90;5.45;;;;;;;;;;5107113;28;20114;-81
2022/08/18 03:04:05;;;;;;;9.25;6.38;;;;;;;;;;5107881;28;20071;-81
2022/08/18 03:06:34;;;;;;;8.82;6.20;;;;;;;;;;5109178;28;20044;-81
2022/08/18 03:09:00;;;;;;;8.30;5.72;;;;;;;;;;5091674;28;20589;-81
2022/08/18 03:11:28;;;;;;;9.50;6.38;;;;;;;;;;5109384;28;20048;-82
2022/08/18 03:13:55;;;;;;;13.32;6.22;;;;;;;;;;5109485;28;20321;-81
2022/08/18 03:16:23;;;;;;;8.95;6.05;;;;;;;;;;5110177;28;20048;-81
2022/08/18 03:18:50;;;;;;;10.43;5.93;;;;;;;;;;5109966;28;20044;-80
2022/08/18 03:21:20;;;;;;;8.20;6.07;;;;;;;;;;5110262;28;20070;-81
2022/08/18 03:23:47;;;;;;;10.05;5.70;;;;;;;;;;5090959;28;20048;-80
2022/08/18 03:26:27;;;;;;;7.00;5.30;;;;;;;;;;5107499;28;20055;-81
2022/08/18 03:28:54;;;;;;;10.60;6.53;;;;;;;;;;5107670;28;20048;-79
2022/08/18 03:31:21;;;;;;;12.77;6.18;;;;;;;;;;5088218;28;20102;-81
2022/08/18 03:33:50;;;;;;;9.98;6.70;;;;;;;;;;5106151;28;20133;-80
2022/08/18 03:36:21;;;;;;;9.60;6.93;;;;;;;;;;5107197;28;20250;-81
2022/08/18 03:38:48;;;;;;;9.18;6.63;;;;;;;;;;5102909;28;20098;-80
2022/08/18 03:41:21;;;;;;;10.73;6.13;;;;;;;;;;5106497;28;20044;-80
2022/08/18 03:44:08;;;;;;;9.48;6.10;;;;;;;;;;5091436;28;20432;-80
2022/08/18 03:46:35;;;;;;;9.25;6.40;;;;;;;;;;5088597;28;20040;-80
2022/08/18 03:49:02;;;;;;;11.30;7.00;;;;;;;;;;5106655;28;20455;-80
2022/08/18 03:51:30;;;;;;;13.27;7.20;;;;;;;;;;5104539;28;20059;-80
2022/08/18 03:53:59;;;;;;;10.35;6.60;;;;;;;;;;5103760;28;20055;-80
2022/08/18 03:56:26;;;;;;;10.13;6.90;;;;;;;;;;5087311;28;20051;-79
2022/08/18 03:58:55;;;;;;;11.65;6.82;;;;;;;;;;5102253;28;20139;-79
2022/08/18 04:01:23;;;;;;;10.02;6.82;;;;;;;;;;5099638;28;20046;-80
2022/08/18 04:03:55;;;;;;;14.35;6.95;;;;;;;;;;5105414;28;20055;-80
2022/08/18 04:06:23;;;;;;;9.43;7.05;;;;;;;;;;5106518;28;20344;-80
2022/08/18 04:08:57;;;;;;;11.55;6.95;;;;;;;;;;5101446;28;20135;-78
2022/08/18 04:11:24;;;;;;;11.55;6.70;;;;;;;;;;5081118;28;20055;-78
2022/08/18 04:13:50;;;;;;;10.88;6.80;;;;;;;;;;5099756;28;20044;-80
2022/08/18 04:16:16;;;;;;;9.43;7.05;;;;;;;;;;5108068;28;20055;-79
2022/08/18 04:18:45;;;;;;;12.98;7.20;;;;;;;;;;5106236;28;20044;-79
2022/08/18 04:21:12;;;;;;;9.68;6.95;;;;;;;;;;5105617;28;20135;-79
2022/08/18 04:23:40;;;;;;;8.90;6.88;;;;;;;;;;5104592;28;20062;-78
2022/08/18 04:26:11;;;;;;;11.48;7.45;;;;;;;;;;5100981;28;20072;-79
2022/08/18 04:28:46;;;;;;;10.57;6.72;;;;;;;;;;5102529;28;20108;-79
2022/08/18 04:31:13;;;;;;;11.80;6.57;;;;;;;;;;5096948;28;20115;-78
2022/08/18 04:33:40;;;;;;;17.05;7.07;;;;;;;;;;5103475;28;20059;-78
2022/08/18 04:36:11;;;;;;;13.80;6.85;;;;;;;;;;5107037;28;20040;-77
2022/08/18 04:38:44;;;;;;;12.00;6.57;;;;;;;;;;5106940;28;20503;-79
2022/08/18 04:41:11;;;;;;;10.70;6.50;;;;;;;;;;5105706;28;20064;-79
2022/08/18 04:43:38;;;;;;;11.52;7.57;;;;;;;;;;5089061;28;20101;-78
2022/08/18 04:46:05;;;;;;;13.38;6.85;;;;;;;;;;5106274;28;20330;-78
2022/08/18 04:48:33;;;;;;;9.80;6.88;;;;;;;;;;5104702;28;20072;-78
2022/08/18 04:51:11;;;;;;;11.13;6.60;;;;;;;;;;5087021;28;20103;-80
2022/08/18 04:53:59;;;;;;;11.50;6.78;;;;;;;;;;5105021;28;20062;-79
2022/08/18 04:56:26;;;;;;;11.27;6.43;;;;;;;;;;5097861;28;20157;-79
2022/08/18 04:58:53;;;;;;;9.18;6.43;;;;;;;;;;5106098;28;20055;-78
2022/08/18 05:01:20;;;;;;;11.27;6.30;;;;;;;;;;5107323;28;20067;-79
2022/08/18 05:03:49;;;;;;;11.93;6.30;;;;;;;;;;5108758;28;20104;-79
2022/08/18 05:06:16;;;;;;;10.55;6.15;;;;;;;;;;5108007;28;20289;-80
2022/08/18 05:08:42;;;;;;;8.80;6.25;;;;;;;;;;5094458;28;20044;-82
2022/08/18 05:11:14;;;;;;;10.38;5.70;;;;;;;;;;5093796;28;20054;-81
2022/08/18 05:13:43;;;;;;;14.38;6.63;;;;;;;;;;5103213;28;20044;-81
2022/08/18 05:16:09;;;;;;;10.60;6.68;;;;;;;;;;5113630;28;20036;-81
2022/08/18 05:18:44;;;;;;;16.35;5.68;;;;;;;;;;5114566;28;20066;-80
2022/08/18 05:21:12;;;;;;;8.27;5.55;;;;;;;;;;5103175;28;20040;-81
2022/08/18 05:23:41;;;;;;;8.65;5.70;;;;;;;;;;5100525;28;20493;-80
2022/08/18 05:26:08;;;;;;;15.75;5.53;;;;;;;;;;5082258;28;20082;-81
2022/08/18 05:28:36;;;;;;;8.30;5.78;;;;;;;;;;5081288;28;20531;-81
2022/08/18 05:31:07;;;;;;;8.85;5.70;;;;;;;;;;5100856;28;20052;-79
2022/08/18 05:33:39;;;;;;;9.50;5.65;;;;;;;;;;5101817;28;20044;-81
2022/08/18 05:36:18;;;;;;;9.50;5.65;;;;;;;;;;5101804;28;20040;-81
2022/08/18 05:39:11;;;;;;;8.00;5.47;;;;;;;;;;5101203;28;20067;-80
2022/08/18 05:41:40;;;;;;;12.50;5.47;;;;;;;;;;5061522;28;20052;-80
2022/08/18 05:44:08;;;;;;;8.50;4.93;;;;;;;;;;5100189;28;20420;-80
2022/08/18 05:46:54;;;;;;;10.20;5.75;;;;;;;;;;5100991;28;20052;-81
2022/08/18 05:49:23;;;;;;;10.85;5.00;;;;;;;;;;5084315;28;20052;-81
2022/08/18 05:51:52;;;;;;;11.15;5.07;;;;;;;;;;5084930;28;20048;-81
2022/08/18 05:57:08;;;;;;;13.48;4.78;;;;;;;;;;5099292;28;20048;-80
2022/08/18 05:59:37;;;;;;;7.22;4.72;;;;;;;;;;5107569;28;20052;-81
2022/08/18 06:02:04;;;;;;;21.23;5.00;;;;;;;;;;5089298;28;20076;-80
2022/08/18 06:04:33;;;;;;;10.13;4.78;;;;;;;;;;5106913;28;20055;-80
2022/08/18 06:07:04;;;;;;;18.50;4.78;;;;;;;;;;5106756;28;20079;-80
2022/08/18 06:09:33;;;;;;;12.85;4.20;;;;;;;;;;5088687;28;20301;-80
2022/08/18 06:12:07;;;;;;;15.82;4.28;;;;;;;;;;5091343;28;20063;-79
2022/08/18 06:14:35;;;;;;;20.30;4.50;;;;;;;;;;5066097;28;20281;-79
2022/08/18 06:17:08;;;;;;;15.55;4.22;;;;;;;;;;5083588;28;20068;-81
2022/08/18 06:19:43;;;;;;;19.67;4.43;;;;;;;;;;5085474;28;20063;-80
2022/08/18 06:22:30;;;;;;;24.88;4.22;;;;;;;;;;5084619;28;20102;-80
2022/08/18 06:24:56;;;;;;;18.52;4.50;;;;;;;;;;5085561;28;20044;-79
2022/08/18 06:27:34;;;;;;;16.85;4.40;;;;;;;;;;5084069;28;20205;-80
2022/08/18 06:30:10;;;;;;;10.32;3.95;;;;;;;;;;5084786;28;20442;-79
2022/08/18 06:32:55;;;;;;;15.00;4.30;;;;;;;;;;5086729;28;20424;-79
2022/08/18 06:35:28;;;;;;;12.65;4.03;;;;;;;;;;5085493;28;20106;-80
2022/08/18 06:40:49;;;;;;;15.35;3.80;;;;;;;;;;5084772;28;20040;-80
2022/08/18 06:43:16;;;;;;;12.40;4.60;;;;;;;;;;5066707;28;20313;-79
2022/08/18 06:45:47;;;;;;;12.40;4.57;;;;;;;;;;5085993;28;20420;-81
2022/08/18 06:48:23;;;;;;;11.75;4.10;;;;;;;;;;5086167;28;20055;-80
2022/08/18 06:50:55;;;;;;;18.67;4.18;;;;;;;;;;5085718;28;20044;-80
2022/08/18 06:53:42;;;;;;;9.20;4.70;;;;;;;;;;5084391;28;20045;-79
2022/08/18 06:56:22;;;;;;;9.43;4.63;;;;;;;;;;5095797;28;20064;-80
2022/08/18 06:58:54;;;;;;;9.85;4.70;;;;;;;;;;5105960;28;20083;-80
2022/08/18 07:01:22;;;;;;;14.82;4.43;;;;;;;;;;5108948;28;20529;-80
2022/08/18 07:03:53;;;;;;;9.88;5.13;;;;;;;;;;5106574;28;20133;-79
2022/08/18 07:06:20;;;;;;;17.58;5.10;;;;;;;;;;5110350;28;20047;-80
2022/08/18 07:08:51;;;;;;;12.52;4.65;;;;;;;;;;5093909;28;20052;-80
2022/08/18 07:11:29;;;;;;;17.17;4.55;;;;;;;;;;5103333;28;20049;-80
2022/08/18 07:13:57;;;;;;;9.50;4.70;;;;;;;;;;5092741;28;20033;-79
2022/08/18 07:16:41;;;;;;;9.27;4.82;;;;;;;;;;5090384;28;20045;-79
2022/08/18 07:19:27;;;;;;;8.07;4.40;;;;;;;;;;5090973;28;20055;-79
2022/08/18 07:22:02;;;;;;;10.30;4.65;;;;;;;;;;5092084;28;20090;-78
2022/08/18 07:24:33;;;;;;;10.37;5.03;;;;;;;;;;5092240;28;20059;-80
2022/08/18 07:27:08;;;;;;;10.63;5.45;;;;;;;;;;5092581;28;20056;-79
2022/08/18 07:29:53;;;;;;;9.82;5.05;;;;;;;;;;5091514;28;20095;-79
2022/08/18 07:32:20;;;;;;;10.50;5.63;;;;;;;;;;5093032;28;20059;-79
2022/08/18 07:34:53;;;;;;;14.90;6.10;;;;;;;;;;5088079;28;20497;-79
2022/08/18 07:37:23;;;;;;;22.75;5.47;;;;;;;;;;5084872;28;20078;-79
2022/08/18 07:39:58;;;;;;;9.73;6.20;;;;;;;;;;5085735;28;20155;-79
2022/08/18 07:42:31;;;;;;;14.35;5.38;;;;;;;;;;5084922;28;20056;-80
2022/08/18 07:45:30;;;;;;;16.15;5.85;;;;;;;;;;5071083;28;20063;-79
2022/08/18 07:48:09;;;;;;;13.45;5.95;;;;;;;;;;5083717;28;20048;-79
2022/08/18 07:51:12;;;;;;;16.15;5.88;;;;;;;;;;5084962;28;20175;-79
2022/08/18 07:53:46;;;;;;;11.95;5.65;;;;;;;;;;5089229;28;20040;-79
2022/08/18 07:56:27;;;;;;;17.60;5.43;;;;;;;;;;5100300;28;20092;-80
2022/08/18 07:59:06;;;;;;;11.48;5.32;;;;;;;;;;5108476;28;20052;-79
2022/08/18 08:01:32;;;;;;;18.88;6.30;;;;;;;;;;5104667;28;20089;-79
2022/08/18 08:04:02;;;;;;;20.20;6.68;;;;;;;;;;5108619;28;20048;-79
2022/08/18 08:06:48;;;;;;;21.08;6.15;;;;;;;;;;5106033;28;20055;-79
2022/08/18 08:09:53;;;;;;;20.05;6.68;;;;;;;;;;5103798;28;20138;-79
2022/08/18 08:12:38;;;;;;;19.33;6.32;;;;;;;;;;5085841;28;20578;-79
2022/08/18 08:15:26;;;;;;;24.35;6.57;;;;;;;;;;5084367;28;20539;-80
2022/08/18 08:17:58;;;;;;;19.88;5.97;;;;;;;;;;5084484;28;20044;-79
2022/08/18 08:20:31;;;;;;;20.23;6.30;;;;;;;;;;5084458;28;20053;-79
2022/08/18 08:22:58;;;;;;;14.68;6.20;;;;;;;;;;5084936;28;20044;-80
2022/08/18 08:25:45;;;;;;;17.30;6.35;;;;;;;;;;5084658;28;20176;-80
2022/08/18 08:28:13;;;;;;;13.75;6.72;;;;;;;;;;5024066;28;20523;-78
2022/08/18 08:30:58;;;;;;;11.85;6.45;;;;;;;;;;5090713;28;20029;-78
2022/08/18 08:33:50;;;;;;;15.80;6.18;;;;;;;;;;5094311;28;20033;-79
2022/08/18 08:36:30;;;;;;;16.45;6.03;;;;;;;;;;5074388;28;20564;-78
2022/08/18 08:38:59;;;;;;;12.25;6.32;;;;;;;;;;5072995;28;20677;-78
2022/08/18 08:41:32;;;;;;;12.32;6.35;;;;;;;;;;5073902;28;20056;-78
2022/08/18 08:44:07;;;;;;;14.55;6.40;;;;;;;;;;5075633;28;20045;-78
2022/08/18 08:46:39;;;;;;;11.52;6.47;;;;;;;;;;5057981;28;20055;-80
2022/08/18 08:49:08;;;;;;;12.85;7.53;;;;;;;;;;5075705;28;20049;-80
2022/08/18 08:51:43;;;;;;;18.95;7.50;;;;;;;;;;5076733;28;20465;-80
2022/08/18 08:54:24;;;;;;;12.37;7.17;;;;;;;;;;5083126;28;20071;-80
2022/08/18 08:56:53;;;;;;;16.25;7.13;;;;;;;;;;5084739;28;20310;-79
2022/08/18 08:59:20;;;;;;;17.63;6.90;;;;;;;;;;5100811;28;20044;-80
2022/08/18 09:02:10;;;;;;;13.98;7.03;;;;;;;;;;5101270;28;20040;-80
2022/08/18 09:05:01;;;;;;;17.23;7.40;;;;;;;;;;5099198;28;20052;-80
2022/08/18 09:07:41;;;;;;;14.40;7.38;;;;;;;;;;5082494;28;20244;-78
2022/08/18 09:10:10;;;;;;;14.18;7.20;;;;;;;;;;5098638;28;20059;-80
2022/08/18 09:12:57;;;;;;;16.45;6.65;;;;;;;;;;5080735;28;20112;-79
2022/08/18 09:15:42;;;;;;;16.52;6.72;;;;;;;;;;5079316;28;20068;-78
2022/08/18 09:18:12;;;;;;;16.13;6.55;;;;;;;;;;5086119;28;20110;-79
2022/08/18 09:20:57;;;;;;;18.65;6.78;;;;;;;;;;5089097;28;20063;-78
2022/08/18 09:23:32;;;;;;;11.40;6.47;;;;;;;;;;5080539;28;20090;-79
2022/08/18 09:26:18;;;;;;;13.10;6.80;;;;;;;;;;5080407;28;20095;-78
2022/08/18 09:28:59;;;;;;;10.15;6.40;;;;;;;;;;5083064;28;20559;-77
2022/08/18 09:31:27;;;;;;;18.73;5.88;;;;;;;;;;5082831;28;20052;-79
2022/08/18 09:34:03;;;;;;;26.75;5.70;;;;;;;;;;5083435;28;20048;-79
2022/08/18 09:36:36;;;;;;;9.60;5.68;;;;;;;;;;5082380;28;20094;-80
2022/08/18 09:41:52;;;;;;;19.42;5.85;;;;;;;;;;5080165;28;20132;-79
2022/08/18 09:44:37;;;;;;;19.10;6.47;;;;;;;;;;5081297;28;20052;-79
2022/08/18 09:47:08;;;;;;;15.48;6.28;;;;;;;;;;5080368;28;20070;-80
2022/08/18 09:49:45;;;;;;;17.88;6.18;;;;;;;;;;5079934;28;20139;-80
2022/08/18 09:52:22;;;;;;;11.27;6.15;;;;;;;;;;5079962;28;20048;-79
2022/08/18 09:55:15;;;;;;;15.90;6.90;;;;;;;;;;5095868;28;20056;-79
2022/08/18 09:57:43;;;;;;;23.60;6.55;;;;;;;;;;5096442;28;20079;-80
2022/08/18 10:00:11;;;;;;;16.50;5.78;;;;;;;;;;5102563;28;20044;-80
2022/08/18 10:02:39;;;;;;;19.98;6.47;;;;;;;;;;5103845;28;20079;-80
2022/08/18 10:05:14;;;;;;;17.30;6.22;;;;;;;;;;5102508;28;20056;-80
2022/08/18 10:07:44;;;;;;;15.48;6.60;;;;;;;;;;5094544;28;20043;-80
2022/08/18 10:10:13;;;;;;;17.45;6.55;;;;;;;;;;5093242;28;20059;-80
2022/08/18 10:13:02;;;;;;;15.18;6.65;;;;;;;;;;5070763;28;20059;-79
2022/08/18 10:15:29;;;;;;;16.02;6.10;;;;;;;;;;5070949;28;20563;-79
2022/08/18 10:18:17;;;;;;;24.20;6.38;;;;;;;;;;5072787;28;20068;-79
2022/08/18 10:20:43;;;;;;;17.83;7.40;;;;;;;;;;5073406;28;20127;-80
2022/08/18 10:23:10;;;;;;;12.55;7.53;;;;;;;;;;5074721;28;20049;-79
2022/08/18 10:25:38;;;;;;;17.00;6.97;;;;;;;;;;5075075;28;20236;-79
2022/08/18 10:28:08;;;;;;;13.80;8.15;;;;;;;;;;5075525;28;20439;-79
2022/08/18 10:30:37;;;;;;;18.17;7.63;;;;;;;;;;5076252;28;20049;-79
2022/08/18 10:33:42;;;;;;;17.77;7.50;;;;;;;;;;5077062;28;20058;-81
2022/08/18 10:36:09;;;;;;;21.00;8.60;;;;;;;;;;5078254;28;20068;-80
2022/08/18 10:38:39;;;;;;;28.75;8.68;;;;;;;;;;5078225;28;20052;-79
2022/08/18 10:41:24;;;;;;;20.98;9.27;;;;;;;;;;5080966;28;20478;-79
2022/08/18 10:43:52;;;;;;;18.77;8.60;;;;;;;;;;5080982;28;20075;-80
2022/08/18 10:46:25;;;;;;;19.33;10.05;;;;;;;;;;5082561;28;20087;-79
2022/08/18 10:49:02;;;;;;;24.23;10.57;;;;;;;;;;5081979;28;20055;-78
2022/08/18 10:51:29;;;;;;;19.70;9.70;;;;;;;;;;5083015;28;20121;-80
2022/08/18 10:54:23;;;;;;;22.30;9.20;;;;;;;;;;5070926;28;20044;-80
2022/08/18 10:56:53;;;;;;;19.95;10.07;;;;;;;;;;5094194;28;20044;-79
2022/08/18 10:59:30;;;;;;;22.35;11.45;;;;;;;;;;5101719;28;20044;-79
2022/08/18 11:02:13;;;;;;;26.63;12.60;;;;;;;;;;5104648;28;20044;-78
2022/08/18 11:04:47;;;;;;;28.08;12.50;;;;;;;;;;5103666;28;20248;-79
2022/08/18 11:07:28;;;;;;;21.70;13.88;;;;;;;;;;5102027;28;20067;-80
2022/08/18 11:09:59;;;;;;;26.83;13.52;;;;;;;;;;5101909;28;20052;-79
2022/08/18 11:13:06;;;;;;;29.15;14.32;;;;;;;;;;5080577;28;20112;-79
2022/08/18 11:15:36;;;;;;;22.15;14.23;;;;;;;;;;5081885;28;20048;-80
2022/08/18 11:18:27;;;;;;;28.80;14.75;;;;;;;;;;5082324;28;20151;-79
2022/08/18 11:21:14;;;;;;;35.65;14.40;;;;;;;;;;5083152;28;20079;-79
2022/08/18 11:23:40;;;;;;;33.42;14.57;;;;;;;;;;5082744;28;20072;-80
2022/08/18 11:26:12;;;;;;;32.45;15.27;;;;;;;;;;5084292;28;20516;-78
2022/08/18 11:28:43;;;;;;;28.55;15.25;;;;;;;;;;5086407;28;20063;-79
2022/08/18 11:31:12;;;;;;;33.92;15.18;;;;;;;;;;5086066;28;20198;-79
2022/08/18 11:33:39;;;;;;;27.80;15.25;;;;;;;;;;5086577;28;20171;-80
2022/08/18 11:36:06;;;;;;;24.08;15.02;;;;;;;;;;5086654;28;20048;-80
2022/08/18 11:38:35;;;;;;;32.58;14.77;;;;;;;;;;5089685;28;20048;-80
2022/08/18 11:41:15;;;;;;;35.15;14.07;;;;;;;;;;5089458;28;20083;-80
2022/08/18 11:43:43;;;;;;;25.42;13.90;;;;;;;;;;5093438;28;20047;-79
2022/08/18 11:46:29;;;;;;;33.15;13.52;;;;;;;;;;5095706;28;20055;-80
2022/08/18 11:48:58;;;;;;;27.45;13.73;;;;;;;;;;5072457;28;20044;-78
2022/08/18 11:51:56;;;;;;;27.98;13.52;;;;;;;;;;5085716;28;20072;-79
2022/08/18 11:54:34;;;;;;;18.85;13.23;;;;;;;;;;5094354;28;20253;-80
2022/08/18 11:57:19;;;;;;;28.98;13.40;;;;;;;;;;5078026;28;20060;-79
2022/08/18 11:59:46;;;;;;;25.65;11.85;;;;;;;;;;5083131;28;20052;-79
2022/08/18 12:02:25;;;;;;;20.25;12.05;;;;;;;;;;5084809;28;20132;-79
2022/08/18 12:04:55;;;;;;;28.75;13.63;;;;;;;;;;5086676;28;20059;-80
2022/08/18 12:07:27;;;;;;;23.42;12.40;;;;;;;;;;5086804;28;20048;-78
2022/08/18 12:10:13;;;;;;;26.77;12.55;;;;;;;;;;5084483;28;20099;-80
2022/08/18 12:12:46;;;;;;;28.95;14.32;;;;;;;;;;5085527;28;20107;-80
2022/08/18 12:15:18;;;;;;;34.63;13.60;;;;;;;;;;5086792;28;20028;-80
2022/08/18 12:17:50;;;;;;;34.30;13.68;;;;;;;;;;5086509;28;20052;-79
2022/08/18 12:20:36;;;;;;;29.98;13.38;;;;;;;;;;5086306;28;20063;-79
2022/08/18 12:23:04;;;;;;;28.25;13.90;;;;;;;;;;5086639;28;20075;-80
2022/08/18 12:25:31;;;;;;;29.05;14.48;;;;;;;;;;5086864;28;20040;-79
2022/08/18 12:27:57;;;;;;;31.33;15.98;;;;;;;;;;5087357;28;20052;-80
2022/08/18 12:30:23;;;;;;;24.45;14.48;;;;;;;;;;5087500;28;20052;-79
2022/08/18 12:32:51;;;;;;;24.52;15.10;;;;;;;;;;5086780;28;20052;-79
2022/08/18 12:35:38;;;;;;;26.05;14.43;;;;;;;;;;5087600;28;20336;-80
2022/08/18 12:38:07;;;;;;;26.85;15.85;;;;;;;;;;5086784;28;20055;-80
2022/08/18 12:40:39;;;;;;;25.33;15.35;;;;;;;;;;5090581;28;20041;-78
2022/08/18 12:43:06;;;;;;;27.52;15.60;;;;;;;;;;5091844;28;20044;-80
2022/08/18 12:45:32;;;;;;;24.77;15.00;;;;;;;;;;5092025;28;20044;-79
2022/08/18 12:48:02;;;;;;;25.40;15.38;;;;;;;;;;5093428;28;20044;-80
2022/08/18 12:50:48;;;;;;;21.55;13.60;;;;;;;;;;5093669;28;20043;-79
2022/08/18 12:53:24;;;;;;;25.75;13.50;;;;;;;;;;5094624;28;20048;-78
2022/08/18 12:56:03;;;;;;;32.88;14.18;;;;;;;;;;5097742;28;20040;-79
2022/08/18 12:58:30;;;;;;;19.20;13.23;;;;;;;;;;5092830;28;20044;-80
2022/08/18 13:01:01;;;;;;;22.13;13.00;;;;;;;;;;5087795;28;20040;-79
2022/08/18 13:03:29;;;;;;;22.92;14.40;;;;;;;;;;5086880;28;20052;-80
2022/08/18 13:06:01;;;;;;;26.52;13.70;;;;;;;;;;5087948;28;20055;-78
2022/08/18 13:08:27;;;;;;;20.63;13.50;;;;;;;;;;5087400;28;20078;-81
2022/08/18 13:10:59;;;;;;;30.77;14.27;;;;;;;;;;5090683;28;20194;-81
2022/08/18 13:13:41;;;;;;;28.02;13.32;;;;;;;;;;5090442;28;20043;-80
2022/08/18 13:16:08;;;;;;;19.67;12.27;;;;;;;;;;5105516;28;20078;-80
2022/08/18 13:18:41;;;;;;;18.92;11.77;;;;;;;;;;5106613;28;20058;-81
2022/08/18 13:21:11;;;;;;;21.55;11.27;;;;;;;;;;5106708;28;20054;-80
2022/08/18 13:23:38;;;;;;;25.30;11.88;;;;;;;;;;5089713;28;20051;-79
2022/08/18 13:26:08;;;;;;;18.35;10.52;;;;;;;;;;5092609;28;20052;-80
2022/08/18 13:28:35;;;;;;;24.35;11.32;;;;;;;;;;5106720;28;20055;-81
2022/08/18 13:31:21;;;;;;;20.13;12.07;;;;;;;;;;5090516;28;20143;-79
2022/08/18 13:33:49;;;;;;;22.55;12.57;;;;;;;;;;5089517;28;20055;-80
2022/08/18 13:36:26;;;;;;;22.88;13.05;;;;;;;;;;5089204;28;20048;-80
2022/08/18 13:38:54;;;;;;;19.33;12.95;;;;;;;;;;5089410;28;20186;-79
2022/08/18 13:41:21;;;;;;;25.63;12.93;;;;;;;;;;5105589;28;20519;-80
2022/08/18 13:43:49;;;;;;;25.30;12.55;;;;;;;;;;5105546;28;20044;-80
2022/08/18 13:46:18;;;;;;;19.45;11.55;;;;;;;;;;5106594;28;20044;-81
2022/08/18 13:48:58;;;;;;;20.85;12.43;;;;;;;;;;5103440;28;20059;-80
2022/08/18 13:51:26;;;;;;;22.15;12.95;;;;;;;;;;5086166;28;20048;-80
2022/08/18 13:53:54;;;;;;;24.27;13.82;;;;;;;;;;5099767;28;20051;-80
2022/08/18 13:56:40;;;;;;;31.08;13.82;;;;;;;;;;5093351;28;20032;-80
2022/08/18 13:59:16;;;;;;;22.42;13.48;;;;;;;;;;5093048;28;20037;-80
2022/08/18 14:01:47;;;;;;;24.15;13.75;;;;;;;;;;5095693;28;20036;-80
2022/08/18 14:04:18;;;;;;;23.42;14.90;;;;;;;;;;5085361;28;20104;-81
2022/08/18 14:06:46;;;;;;;21.30;13.18;;;;;;;;;;5106020;28;20052;-79
2022/08/18 14:09:23;;;;;;;28.80;14.00;;;;;;;;;;5107181;28;20055;-80
2022/08/18 14:12:08;;;;;;;30.90;14.18;;;;;;;;;;5088383;28;20090;-81
2022/08/18 14:14:48;;;;;;;27.90;15.17;;;;;;;;;;5084948;28;20104;-81
2022/08/18 14:17:17;;;;;;;28.17;14.23;;;;;;;;;;5094241;28;20055;-81
2022/08/18 14:28:00;;;;;;;26.15;13.77;;;;;;;;;;5098881;28;20082;-80
2022/08/18 14:30:30;;;;;;;23.50;13.50;;;;;;;;;;5100410;28;20067;-80
2022/08/18 14:32:57;;;;;;;23.33;12.77;;;;;;;;;;5070703;28;20067;-79
2022/08/18 14:35:24;;;;;;;29.33;12.00;;;;;;;;;;5095482;28;20097;-81
2022/08/18 14:38:10;;;;;;;24.13;12.93;;;;;;;;;;5099472;28;20048;-81
2022/08/18 14:40:39;;;;;;;25.33;12.57;;;;;;;;;;5091409;28;20436;-81
2022/08/18 14:43:09;;;;;;;21.08;12.65;;;;;;;;;;5086520;28;20044;-80
2022/08/18 14:45:38;;;;;;;30.05;13.35;;;;;;;;;;5093807;28;20048;-79
2022/08/18 14:48:05;;;;;;;18.52;12.18;;;;;;;;;;5094081;28;20516;-80
2022/08/18 14:50:36;;;;;;;23.13;12.77;;;;;;;;;;5085089;28;20048;-78
2022/08/18 14:53:06;;;;;;;30.05;13.73;;;;;;;;;;5083165;28;20055;-79
2022/08/18 14:55:33;;;;;;;19.38;13.43;;;;;;;;;;5089532;28;20037;-80
2022/08/18 14:57:59;;;;;;;19.85;11.25;;;;;;;;;;5094244;28;20041;-79
2022/08/18 15:00:26;;;;;;;18.08;12.60;;;;;;;;;;5108488;28;21687;-78
2022/08/18 15:02:53;;;;;;;24.23;11.80;;;;;;;;;;5103242;28;20044;-78
2022/08/18 15:05:19;;;;;;;24.23;11.93;;;;;;;;;;5084275;28;20084;-80
2022/08/18 15:07:50;;;;;;;23.33;12.90;;;;;;;;;;5065663;28;20056;-78
2022/08/18 15:10:16;;;;;;;24.95;12.45;;;;;;;;;;5065770;28;20048;-80
2022/08/18 15:12:48;;;;;;;21.25;12.75;;;;;;;;;;5105963;28;20052;-80
2022/08/18 15:15:15;;;;;;;21.35;12.73;;;;;;;;;;5096572;28;20098;-78
2022/08/18 15:17:43;;;;;;;24.45;13.43;;;;;;;;;;5081938;28;20484;-79
2022/08/18 15:20:15;;;;;;;28.60;13.23;;;;;;;;;;5085447;28;20049;-78
2022/08/18 15:25:43;;;;;;;21.92;12.15;;;;;;;;;;5103689;28;20062;-80